createdAt,value
2019-04-05T00:00:42.287Z,83.60
2019-04-05T00:03:08.421Z,83.60
2019-04-05T00:05:34.524Z,83.40
2019-04-05T00:08:00.662Z,83.80
2019-04-05T00:10:26.793Z,83.30
2019-04-05T00:12:52.990Z,83.20
2019-04-05T00:15:19.091Z,83.30
2019-04-05T00:17:45.240Z,83.10
2019-04-05T00:20:13.783Z,83.10
2019-04-05T00:22:39.995Z,82.90
2019-04-05T00:25:06.198Z,83.10
2019-04-05T00:27:32.426Z,82.90
2019-04-05T00:29:58.605Z,82.90
2019-04-05T00:32:24.751Z,82.80
2019-04-05T00:34:50.854Z,82.70
2019-04-05T00:37:16.949Z,82.80
2019-04-05T00:39:43.072Z,82.80
2019-04-05T00:42:09.187Z,82.70
2019-04-05T00:44:35.302Z,82.90
2019-04-05T00:47:01.411Z,82.70
2019-04-05T00:49:27.520Z,82.80
2019-04-05T00:51:53.674Z,82.90
2019-04-05T00:54:19.974Z,82.80
2019-04-05T00:56:46.228Z,82.80
2019-04-05T00:59:12.427Z,82.80
2019-04-05T01:01:38.755Z,82.90
2019-04-05T01:04:04.986Z,83.70
2019-04-05T01:06:31.073Z,82.80
2019-04-05T01:08:57.275Z,83.10
2019-04-05T01:11:23.588Z,83.00
2019-04-05T01:13:50.942Z,83.00
2019-04-05T01:16:17.041Z,83.20
2019-04-05T01:18:43.148Z,83.30
2019-04-05T01:21:12.879Z,83.50
2019-04-05T01:23:39.093Z,84.40
2019-04-05T01:26:08.586Z,83.70
2019-04-05T01:28:34.806Z,83.80
2019-04-05T01:31:01.138Z,84.00
2019-04-05T01:33:27.467Z,84.10
2019-04-05T01:35:53.699Z,84.20
2019-04-05T01:38:19.992Z,84.40
2019-04-05T01:40:46.217Z,84.60
2019-04-05T01:43:12.565Z,84.50
2019-04-05T01:45:39.158Z,84.60
2019-04-05T01:48:07.111Z,84.80
2019-04-05T01:50:33.323Z,85.00
2019-04-05T01:52:59.638Z,85.10
2019-04-05T01:55:25.756Z,85.20
2019-04-05T01:57:51.847Z,85.40
2019-04-05T02:00:19.165Z,85.50
2019-04-05T02:02:45.695Z,85.50
2019-04-05T02:05:12.290Z,85.60
2019-04-05T02:07:38.819Z,85.50
2019-04-05T02:10:07.261Z,85.80
2019-04-05T02:12:33.477Z,85.80
2019-04-05T02:15:00.313Z,85.80
2019-04-05T02:17:26.627Z,85.90
2019-04-05T02:19:52.726Z,85.90
2019-04-05T02:22:18.868Z,86.00
2019-04-05T02:24:44.957Z,86.10
2019-04-05T02:27:11.174Z,86.20
2019-04-05T02:29:37.268Z,86.10
2019-04-05T02:32:03.487Z,86.20
2019-04-05T02:34:29.690Z,86.20
2019-04-05T02:36:55.917Z,86.40
2019-04-05T02:39:22.127Z,86.40
2019-04-05T02:41:50.123Z,86.50
2019-04-05T02:44:16.648Z,86.60
2019-04-05T02:46:44.154Z,87.30
2019-04-05T02:49:11.687Z,86.60
2019-04-05T02:51:39.825Z,86.70
2019-04-05T02:54:06.711Z,86.80
2019-04-05T02:56:33.819Z,86.80
2019-04-05T02:59:01.170Z,86.80
2019-04-05T03:01:28.375Z,86.80
2019-04-05T03:03:54.689Z,86.80
2019-04-05T03:06:21.141Z,86.90
2019-04-05T03:08:47.493Z,86.90
2019-04-05T03:11:17.329Z,87.00
2019-04-05T03:13:47.250Z,86.90
2019-04-05T03:16:17.092Z,86.90
2019-04-05T03:18:47.111Z,86.90
2019-04-05T03:21:14.090Z,86.90
2019-04-05T03:24:01.976Z,87.10
2019-04-05T03:26:31.909Z,87.20
2019-04-05T03:29:01.730Z,87.20
2019-04-05T03:31:28.613Z,87.30
2019-04-05T03:33:56.095Z,87.40
2019-04-05T03:36:22.410Z,87.50
2019-04-05T03:41:15.198Z,87.50
2019-04-05T03:43:41.423Z,87.90
2019-04-05T03:46:08.024Z,87.90
2019-04-05T03:48:34.564Z,88.00
2019-04-05T03:51:00.865Z,88.00
2019-04-05T03:53:27.086Z,88.10
2019-04-05T03:55:54.294Z,88.00
2019-04-05T03:58:20.649Z,88.10
2019-04-05T04:00:47.443Z,88.20
2019-04-05T04:03:13.864Z,88.30
2019-04-05T04:05:44.286Z,88.30
2019-04-05T04:08:15.043Z,88.40
2019-04-05T04:10:41.738Z,88.40
2019-04-05T04:13:08.572Z,88.50
2019-04-05T04:15:35.285Z,88.60
2019-04-05T04:18:02.387Z,88.70
2019-04-05T04:20:49.677Z,88.70
2019-04-05T04:23:17.401Z,88.70
2019-04-05T04:26:05.479Z,88.70
2019-04-05T04:28:31.904Z,89.70
2019-04-05T04:30:58.166Z,88.90
2019-04-05T04:33:24.570Z,89.00
2019-04-05T04:35:51.733Z,89.00
2019-04-05T04:38:18.091Z,89.10
2019-04-05T04:40:44.915Z,89.00
2019-04-05T04:43:11.922Z,89.10
2019-04-05T04:45:38.441Z,89.00
2019-04-05T04:48:04.843Z,89.00
2019-04-05T04:50:31.490Z,89.00
2019-04-05T04:52:59.239Z,89.00
2019-04-05T04:55:25.545Z,89.00
2019-04-05T04:57:51.963Z,89.10
2019-04-05T05:00:18.966Z,89.10
2019-04-05T05:02:45.793Z,89.10
2019-04-05T05:05:12.906Z,89.10
2019-04-05T05:07:39.559Z,89.10
2019-04-05T05:10:07.049Z,89.20
2019-04-05T05:12:34.571Z,89.30
2019-04-05T05:15:01.083Z,89.30
2019-04-05T05:17:37.931Z,89.30
2019-04-05T05:19:55.442Z,89.30
2019-04-05T05:22:22.059Z,89.40
2019-04-05T05:24:48.301Z,89.40
2019-04-05T05:27:15.401Z,89.50
2019-04-05T05:29:41.821Z,89.40
2019-04-05T05:32:09.680Z,89.40
2019-04-05T05:34:36.671Z,89.40
2019-04-05T05:37:03.379Z,89.40
2019-04-05T05:39:29.697Z,89.40
2019-04-05T05:41:55.901Z,89.30
2019-04-05T05:44:22.011Z,89.30
2019-04-05T05:46:48.327Z,89.20
2019-04-05T05:49:14.422Z,89.20
2019-04-05T05:51:40.751Z,89.20
2019-04-05T05:54:07.471Z,89.10
2019-04-05T05:56:34.193Z,89.00
2019-04-05T05:59:00.349Z,89.00
2019-04-05T06:01:27.062Z,89.10
2019-04-05T06:04:13.031Z,88.90
2019-04-05T06:06:39.227Z,88.20
2019-04-05T06:09:06.667Z,88.80
2019-04-05T06:11:32.807Z,88.70
2019-04-05T06:13:58.961Z,88.60
2019-04-05T06:16:25.179Z,88.60
2019-04-05T06:18:51.326Z,88.60
2019-04-05T06:21:17.553Z,88.40
2019-04-05T06:23:43.784Z,88.30
2019-04-05T06:26:10.089Z,88.20
2019-04-05T06:28:36.422Z,88.10
2019-04-05T06:31:02.576Z,87.80
2019-04-05T06:33:31.661Z,87.70
2019-04-05T06:35:56.719Z,87.50
2019-04-05T06:38:22.826Z,87.30
2019-04-05T06:40:48.946Z,87.00
2019-04-05T06:43:15.058Z,86.80
2019-04-05T06:45:41.174Z,86.60
2019-04-05T06:48:18.422Z,86.50
2019-04-05T06:50:35.608Z,86.40
2019-04-05T06:53:01.754Z,86.30
2019-04-05T06:55:27.852Z,86.10
2019-04-05T06:57:53.959Z,85.70
2019-04-05T07:00:28.302Z,85.60
2019-04-05T07:02:54.846Z,85.60
2019-04-05T07:05:21.203Z,85.50
2019-04-05T07:07:47.402Z,84.90
2019-04-05T07:10:13.704Z,84.80
2019-04-05T07:12:40.292Z,84.70
2019-04-05T07:15:06.617Z,84.50
2019-04-05T07:17:32.895Z,84.50
2019-04-05T07:19:59.047Z,84.30
2019-04-05T07:22:36.868Z,85.00
2019-04-05T07:24:53.142Z,84.40
2019-04-05T07:27:19.476Z,84.20
2019-04-05T07:29:45.566Z,84.30
2019-04-05T07:32:11.682Z,84.10
2019-04-05T07:34:37.889Z,84.00
2019-04-05T07:37:04.102Z,83.90
2019-04-05T07:39:30.315Z,83.90
2019-04-05T07:41:56.418Z,83.80
2019-04-05T07:44:22.555Z,83.70
2019-04-05T07:46:48.828Z,83.50
2019-04-05T07:49:14.937Z,83.20
2019-04-05T07:51:41.082Z,82.80
2019-04-05T07:54:07.291Z,82.60
2019-04-05T07:56:33.427Z,82.30
2019-04-05T07:58:59.516Z,82.00
2019-04-05T08:01:25.746Z,82.00
2019-04-05T08:03:52.045Z,81.80
2019-04-05T08:06:18.371Z,81.50
2019-04-05T08:08:57.538Z,81.10
2019-04-05T08:11:26.044Z,80.70
2019-04-05T08:13:54.681Z,80.40
2019-04-05T08:16:20.911Z,80.10
2019-04-05T08:18:56.934Z,79.80
2019-04-05T08:21:15.077Z,79.30
2019-04-05T08:23:41.180Z,78.60
2019-04-05T08:26:07.402Z,78.50
2019-04-05T08:28:33.503Z,78.50
2019-04-05T08:30:59.619Z,78.20
2019-04-05T08:33:25.814Z,78.00
2019-04-05T08:35:52.063Z,77.70
2019-04-05T08:38:18.251Z,77.20
2019-04-05T08:40:44.373Z,76.10
2019-04-05T08:43:10.488Z,75.60
2019-04-05T08:45:36.699Z,74.80
2019-04-05T08:48:03.100Z,73.80
2019-04-05T08:50:29.197Z,73.00
2019-04-05T08:52:55.313Z,72.00
2019-04-05T08:55:21.415Z,70.60
2019-04-05T08:57:48.202Z,70.10
2019-04-05T09:00:15.270Z,69.40
2019-04-05T09:02:41.412Z,68.50
2019-04-05T09:05:07.920Z,67.80
2019-04-05T09:07:34.006Z,67.20
2019-04-05T09:10:00.119Z,66.60
2019-04-05T09:12:26.235Z,66.60
2019-04-05T09:14:52.426Z,66.30
2019-04-05T09:17:18.778Z,65.50
2019-04-05T09:19:44.879Z,64.90
2019-04-05T09:22:10.987Z,64.80
2019-04-05T09:24:37.078Z,64.50
2019-04-05T09:27:03.405Z,63.30
2019-04-05T09:29:29.531Z,63.80
2019-04-05T09:31:55.640Z,62.40
2019-04-05T09:34:23.189Z,61.80
2019-04-05T09:36:49.542Z,61.80
2019-04-05T09:39:15.989Z,61.40
2019-04-05T09:41:42.492Z,60.70
2019-04-05T09:44:08.708Z,59.10
2019-04-05T09:46:45.903Z,58.30
2019-04-05T09:49:03.124Z,57.80
2019-04-05T09:51:29.349Z,57.40
2019-04-05T09:53:55.576Z,57.00
2019-04-05T09:56:21.807Z,55.90
2019-04-05T09:58:47.918Z,55.40
2019-04-05T10:01:14.035Z,55.40
2019-04-05T10:03:40.130Z,55.00
2019-04-05T10:06:06.246Z,54.80
2019-04-05T10:08:32.346Z,54.30
2019-04-05T10:10:58.548Z,53.60
2019-04-05T10:13:24.671Z,53.30
2019-04-05T10:15:50.771Z,51.80
2019-04-05T10:18:16.950Z,51.90
2019-04-05T10:20:43.175Z,52.10
2019-04-05T10:23:09.295Z,52.10
2019-04-05T10:25:35.821Z,51.70
2019-04-05T10:28:02.015Z,51.60
2019-04-05T10:30:28.138Z,50.50
2019-04-05T10:32:54.275Z,50.00
2019-04-05T10:35:20.463Z,49.60
2019-04-05T10:37:46.587Z,49.30
2019-04-05T10:40:13.095Z,49.00
2019-04-05T10:42:39.305Z,48.70
2019-04-05T10:45:08.347Z,48.70
2019-04-05T10:47:34.567Z,48.20
2019-04-05T10:50:03.467Z,47.30
2019-04-05T10:52:28.784Z,45.90
2019-04-05T10:54:57.772Z,46.10
2019-04-05T10:57:23.108Z,46.40
2019-04-05T10:59:49.609Z,46.60
2019-04-05T11:02:15.819Z,46.40
2019-04-05T11:04:41.951Z,45.80
2019-04-05T11:07:08.180Z,46.20
2019-04-05T11:09:34.519Z,45.60
2019-04-05T11:12:00.798Z,45.40
2019-04-05T11:14:26.914Z,44.70
2019-04-05T11:16:58.698Z,43.10
2019-04-05T11:19:21.175Z,42.40
2019-04-05T11:21:48.558Z,41.30
2019-04-05T11:24:15.296Z,40.90
2019-04-05T11:26:42.046Z,40.90
2019-04-05T11:29:08.179Z,40.90
2019-04-05T11:31:34.293Z,41.10
2019-04-05T11:34:00.454Z,40.60
2019-04-05T11:36:26.806Z,40.60
2019-04-05T11:38:53.217Z,40.60
2019-04-05T11:41:21.813Z,40.10
2019-04-05T11:43:48.645Z,39.70
2019-04-05T11:46:18.160Z,39.40
2019-04-05T11:48:44.461Z,39.90
2019-04-05T11:51:10.580Z,39.70
2019-04-05T11:53:36.691Z,38.40
2019-04-05T11:56:13.886Z,38.30
2019-04-05T11:58:31.833Z,36.60
2019-04-05T12:01:09.089Z,36.50
2019-04-05T12:03:38.410Z,36.60
2019-04-05T12:06:04.723Z,36.80
2019-04-05T12:08:31.099Z,37.00
2019-04-05T12:10:57.323Z,36.50
2019-04-05T12:13:23.526Z,35.60
2019-04-05T12:15:49.709Z,35.40
2019-04-05T12:18:19.444Z,35.30
2019-04-05T12:20:52.332Z,35.00
2019-04-05T12:23:12.123Z,35.40
2019-04-05T12:25:38.495Z,35.90
2019-04-05T12:28:06.898Z,35.60
2019-04-05T12:30:32.842Z,34.80
2019-04-05T12:32:59.038Z,35.40
2019-04-05T12:35:25.167Z,36.20
2019-04-05T12:37:55.505Z,36.70
2019-04-05T12:40:19.530Z,36.90
2019-04-05T12:42:46.165Z,36.70
2019-04-05T12:45:15.310Z,36.90
2019-04-05T12:47:40.572Z,37.60
2019-04-05T12:50:08.014Z,35.20
2019-04-05T12:52:34.111Z,34.10
2019-04-05T12:55:00.232Z,34.90
2019-04-05T12:57:28.417Z,34.90
2019-04-05T12:59:56.427Z,35.00
2019-04-05T13:02:32.965Z,35.20
2019-04-05T13:04:51.007Z,35.30
2019-04-05T13:07:17.379Z,35.50
2019-04-05T13:09:45.658Z,35.40
2019-04-05T13:12:11.628Z,34.30
2019-04-05T13:14:37.862Z,33.40
2019-04-05T13:17:04.266Z,33.00
2019-04-05T13:19:30.642Z,32.30
2019-04-05T13:21:57.805Z,31.90
2019-04-05T13:24:24.003Z,32.00
2019-04-05T13:26:50.115Z,31.30
2019-04-05T13:29:17.622Z,31.40
2019-04-05T13:31:44.269Z,31.70
2019-04-05T13:34:10.598Z,32.40
2019-04-05T13:36:36.715Z,32.40
2019-04-05T13:39:05.941Z,33.50
2019-04-05T13:41:32.406Z,34.90
2019-04-05T13:44:01.226Z,36.40
2019-04-05T13:46:26.665Z,37.00
2019-04-05T13:48:52.807Z,36.30
2019-04-05T13:51:27.739Z,36.20
2019-04-05T13:53:52.788Z,36.10
2019-04-05T13:56:19.390Z,35.20
2019-04-05T13:58:46.887Z,35.70
2019-04-05T14:01:13.161Z,36.30
2019-04-05T14:03:39.250Z,37.30
2019-04-05T14:06:05.471Z,38.20
2019-04-05T14:08:31.568Z,39.70
2019-04-05T14:10:57.699Z,39.40
2019-04-05T14:13:23.823Z,39.90
2019-04-05T14:15:50.067Z,40.30
2019-04-05T14:18:16.301Z,40.90
2019-04-05T14:20:42.517Z,41.30
2019-04-05T14:23:08.627Z,41.90
2019-04-05T14:25:36.110Z,42.60
2019-04-05T14:28:04.674Z,42.90
2019-04-05T14:30:33.058Z,43.10
2019-04-05T14:32:58.614Z,43.30
2019-04-05T14:35:25.522Z,43.60
2019-04-05T14:37:52.324Z,43.70
2019-04-05T14:40:20.101Z,44.10
2019-04-05T14:42:46.364Z,43.90
2019-04-05T14:45:13.039Z,43.90
2019-04-05T14:47:41.458Z,43.70
2019-04-05T14:50:08.340Z,43.00
2019-04-05T14:52:34.656Z,42.40
2019-04-05T14:55:00.758Z,41.30
2019-04-05T14:57:26.870Z,40.10
2019-04-05T14:59:52.991Z,39.70
2019-04-05T15:02:19.165Z,39.90
2019-04-05T15:04:45.469Z,39.60
2019-04-05T15:07:11.658Z,39.70
2019-04-05T15:09:37.896Z,40.30
2019-04-05T15:12:04.393Z,40.60
2019-04-05T15:14:30.495Z,41.30
2019-04-05T15:16:56.635Z,42.30
2019-04-05T15:19:22.747Z,43.40
2019-04-05T15:21:48.954Z,44.60
2019-04-05T15:24:16.881Z,45.30
2019-04-05T15:26:43.205Z,45.60
2019-04-05T15:29:09.295Z,45.70
2019-04-05T15:31:35.400Z,45.90
2019-04-05T15:34:01.521Z,46.40
2019-04-05T15:36:29.434Z,46.50
2019-04-05T15:38:55.846Z,46.90
2019-04-05T15:41:22.053Z,46.70
2019-04-05T15:43:48.400Z,45.80
2019-04-05T15:46:14.774Z,45.70
2019-04-05T15:48:40.883Z,45.90
2019-04-05T15:51:06.977Z,46.00
2019-04-05T15:53:33.573Z,45.80
2019-04-05T15:56:03.990Z,46.20
2019-04-05T15:58:27.856Z,46.00
2019-04-05T16:00:54.109Z,46.50
2019-04-05T16:03:20.337Z,47.30
2019-04-05T16:05:46.741Z,47.90
2019-04-05T16:08:16.046Z,48.40
2019-04-05T16:10:42.352Z,48.90
2019-04-05T16:13:08.579Z,49.40
2019-04-05T16:15:34.777Z,49.90
2019-04-05T16:18:01.023Z,50.40
2019-04-05T16:20:27.107Z,50.70
2019-04-05T16:22:53.260Z,51.10
2019-04-05T16:25:19.558Z,51.30
2019-04-05T16:27:45.867Z,51.40
2019-04-05T16:30:12.800Z,51.70
2019-04-05T16:32:38.972Z,52.00
2019-04-05T16:35:05.325Z,52.50
2019-04-05T16:37:31.443Z,52.70
2019-04-05T16:39:57.648Z,52.80
2019-04-05T16:42:23.740Z,53.10
2019-04-05T16:44:49.868Z,53.20
2019-04-05T16:47:15.974Z,53.80
2019-04-05T16:49:42.078Z,54.00
2019-04-05T16:52:08.212Z,54.40
2019-04-05T16:54:34.404Z,54.90
2019-04-05T16:57:00.490Z,55.30
2019-04-05T16:59:26.651Z,55.60
2019-04-05T17:01:52.840Z,55.80
2019-04-05T17:04:18.930Z,56.20
2019-04-05T17:06:45.043Z,56.20
2019-04-05T17:09:11.151Z,56.20
2019-04-05T17:11:37.354Z,56.30
2019-04-05T17:14:03.676Z,56.50
2019-04-05T17:16:29.787Z,56.80
2019-04-05T17:18:55.942Z,57.00
2019-04-05T17:21:22.042Z,57.30
2019-04-05T17:23:48.175Z,57.60
2019-04-05T17:26:14.293Z,58.00
2019-04-05T17:28:40.394Z,58.40
2019-04-05T17:31:06.507Z,58.50
2019-04-05T17:33:32.611Z,58.60
2019-04-05T17:35:58.730Z,58.70
2019-04-05T17:38:24.827Z,58.90
2019-04-05T17:40:50.924Z,58.70
2019-04-05T17:43:17.049Z,58.90
2019-04-05T17:45:43.241Z,59.30
2019-04-05T17:48:09.458Z,59.60
2019-04-05T17:50:35.769Z,60.20
2019-04-05T17:53:12.140Z,61.10
2019-04-05T17:55:30.262Z,61.60
2019-04-05T17:57:58.554Z,62.30
2019-04-05T18:00:25.268Z,63.00
2019-04-05T18:02:51.467Z,64.00
2019-04-05T18:05:17.612Z,63.50
2019-04-05T18:07:43.750Z,63.80
2019-04-05T18:10:10.401Z,64.00
2019-04-05T18:12:36.541Z,64.40
2019-04-05T18:15:03.554Z,64.30
2019-04-05T18:17:29.667Z,64.50
2019-04-05T18:19:55.781Z,64.50
2019-04-05T18:22:21.962Z,64.50
2019-04-05T18:24:48.086Z,64.40
2019-04-05T18:27:14.213Z,64.60
2019-04-05T18:29:40.311Z,65.00
2019-04-05T18:32:06.500Z,65.10
2019-04-05T18:34:32.602Z,65.40
2019-04-05T18:36:58.975Z,65.60
2019-04-05T18:39:25.080Z,65.70
2019-04-05T18:41:51.164Z,65.80
2019-04-05T18:44:17.277Z,66.00
2019-04-05T18:46:43.382Z,66.00
2019-04-05T18:49:09.604Z,66.10
2019-04-05T18:51:35.802Z,66.40
2019-04-05T18:54:02.019Z,66.50
2019-04-05T18:56:28.136Z,66.60
2019-04-05T18:58:54.367Z,66.70
2019-04-05T19:01:20.539Z,66.80
2019-04-05T19:03:46.696Z,67.00
2019-04-05T19:06:12.799Z,67.00
2019-04-05T19:08:40.159Z,67.00
2019-04-05T19:11:06.450Z,67.20
2019-04-05T19:13:32.579Z,67.20
2019-04-05T19:15:58.735Z,68.10
2019-04-05T19:18:24.907Z,67.40
2019-04-05T19:20:51.074Z,67.50
2019-04-05T19:23:17.173Z,67.60
2019-04-05T19:25:43.292Z,67.60
2019-04-05T19:28:11.296Z,67.60
2019-04-05T19:50:22.032Z,67.40
2019-04-05T19:52:48.141Z,67.40
2019-04-05T19:55:16.500Z,67.60
2019-04-05T19:57:42.655Z,67.80
2019-04-05T20:00:08.948Z,68.00
2019-04-05T20:02:35.154Z,68.20
2019-04-05T20:05:01.304Z,68.60
2019-04-05T20:07:27.442Z,68.90
2019-04-05T20:09:53.571Z,69.00
2019-04-05T20:12:19.662Z,69.20
2019-04-05T20:14:45.775Z,69.30
2019-04-05T20:17:11.874Z,69.40
2019-04-05T20:19:38.377Z,69.40
2019-04-05T20:22:04.598Z,69.60
2019-04-05T20:24:30.706Z,69.40
2019-04-05T20:26:56.833Z,69.40
2019-04-05T20:29:23.042Z,69.50
2019-04-05T20:31:49.150Z,69.50
2019-04-05T20:34:15.252Z,69.70
2019-04-05T20:36:41.388Z,69.90
2019-04-05T20:39:07.578Z,70.20
2019-04-05T20:41:33.766Z,70.30
2019-04-05T20:43:59.882Z,70.50
2019-04-05T20:46:25.987Z,70.50
2019-04-05T20:48:52.099Z,70.80
2019-04-05T20:51:18.356Z,71.80
2019-04-05T20:53:44.558Z,71.20
2019-04-05T20:56:10.659Z,71.30
2019-04-05T20:58:36.775Z,71.40
2019-04-05T21:01:03.075Z,71.50
2019-04-05T21:03:29.222Z,71.70
2019-04-05T21:05:55.347Z,71.80
2019-04-05T21:08:21.477Z,71.90
2019-04-05T21:10:47.565Z,71.80
2019-04-05T21:13:13.788Z,71.80
2019-04-05T21:15:40.014Z,72.00
2019-04-05T21:18:06.199Z,72.00
2019-04-05T21:20:32.327Z,72.20
2019-04-05T21:22:58.443Z,72.50
2019-04-05T21:25:25.173Z,72.50
2019-04-05T21:27:51.319Z,72.40
2019-04-05T21:30:18.032Z,72.60
2019-04-05T21:32:44.203Z,72.80
2019-04-05T21:35:10.623Z,72.90
2019-04-05T21:37:37.667Z,73.00
2019-04-05T21:40:05.603Z,73.10
2019-04-05T21:42:31.856Z,73.30
2019-04-05T21:44:58.135Z,73.40
2019-04-05T21:47:24.349Z,73.40
2019-04-05T21:49:50.665Z,73.70
2019-04-05T21:52:16.956Z,73.80
2019-04-05T21:54:47.637Z,74.00
2019-04-05T21:57:11.271Z,74.20
2019-04-05T21:59:37.485Z,74.20
2019-04-05T22:02:04.023Z,74.20
2019-04-05T22:04:30.397Z,74.10
2019-04-05T22:06:56.661Z,74.20
2019-04-05T22:09:22.913Z,74.30
2019-04-05T22:11:49.123Z,74.50
2019-04-05T22:14:15.399Z,74.70
2019-04-05T22:16:41.698Z,74.90
2019-04-05T22:19:07.984Z,74.90
2019-04-05T22:21:34.243Z,75.10
2019-04-05T22:24:00.545Z,75.10
2019-04-05T22:26:26.755Z,75.10
2019-04-05T22:28:53.132Z,75.10
2019-04-05T22:31:19.395Z,75.20
2019-04-05T22:33:45.752Z,75.40
2019-04-05T22:36:11.987Z,75.40
2019-04-05T22:38:38.262Z,75.30
2019-04-05T22:41:04.522Z,75.30
2019-04-05T22:43:30.798Z,75.60
2019-04-05T22:45:57.161Z,75.60
2019-04-05T22:48:23.378Z,75.70
2019-04-05T22:50:49.674Z,75.90
2019-04-05T22:53:15.959Z,76.00
2019-04-05T22:55:42.220Z,76.00
2019-04-05T22:58:08.460Z,76.20
2019-04-05T23:00:34.894Z,76.20
2019-04-05T23:03:01.130Z,76.30
2019-04-05T23:05:27.388Z,76.10
2019-04-05T23:07:53.639Z,76.50
2019-04-05T23:10:20.137Z,76.70
2019-04-05T23:12:46.387Z,76.90
2019-04-05T23:15:12.738Z,76.90
2019-04-05T23:17:38.991Z,77.10
2019-04-05T23:20:06.358Z,77.20
2019-04-05T23:22:32.594Z,77.10
2019-04-05T23:24:58.941Z,77.10
2019-04-05T23:27:25.298Z,77.10
2019-04-05T23:29:51.550Z,77.40
2019-04-05T23:32:17.814Z,77.60
2019-04-05T23:34:44.056Z,77.90
2019-04-05T23:37:10.306Z,78.00
2019-04-05T23:39:36.553Z,78.10
2019-04-05T23:42:02.919Z,78.30
2019-04-05T23:44:29.139Z,78.40
2019-04-05T23:46:55.379Z,78.50
2019-04-05T23:49:21.622Z,78.60
2019-04-05T23:51:47.871Z,78.60
2019-04-05T23:54:14.111Z,78.80
2019-04-05T23:56:40.432Z,79.10
2019-04-05T23:59:06.602Z,79.30
